sensor_id;sensor_type;location;lat;lon;timestamp;temperature;humidity
7496;DHT22;3789;47.064;15.482;2022-07-15T00:00:59;20.60;99.90
7496;DHT22;3789;47.064;15.482;2022-07-15T00:03:28;20.70;99.90
7496;DHT22;3789;47.064;15.482;2022-07-15T00:05:59;20.80;99.90
7496;DHT22;3789;47.064;15.482;2022-07-15T00:08:29;20.80;99.90
7496;DHT22;3789;47.064;15.482;2022-07-15T00:11:01;20.90;99.90
7496;DHT22;3789;47.064;15.482;2022-07-15T00:13:29;20.90;99.90
7496;DHT22;3789;47.064;15.482;2022-07-15T00:16:00;20.80;99.90
7496;DHT22;3789;47.064;15.482;2022-07-15T00:18:28;20.80;99.90
7496;DHT22;3789;47.064;15.482;2022-07-15T00:20:58;20.70;99.90
7496;DHT22;3789;47.064;15.482;2022-07-15T00:23:28;20.70;99.90
7496;DHT22;3789;47.064;15.482;2022-07-15T00:25:58;20.60;99.90
7496;DHT22;3789;47.064;15.482;2022-07-15T00:28:27;20.50;99.90
7496;DHT22;3789;47.064;15.482;2022-07-15T00:30:55;20.50;99.90
7496;DHT22;3789;47.064;15.482;2022-07-15T00:33:24;20.40;99.90
7496;DHT22;3789;47.064;15.482;2022-07-15T00:35:54;20.30;99.90
7496;DHT22;3789;47.064;15.482;2022-07-15T00:38:26;20.30;99.90
7496;DHT22;3789;47.064;15.482;2022-07-15T00:40:54;20.40;99.90
7496;DHT22;3789;47.064;15.482;2022-07-15T00:43:22;20.50;99.90
7496;DHT22;3789;47.064;15.482;2022-07-15T00:45:52;20.60;99.90
7496;DHT22;3789;47.064;15.482;2022-07-15T00:48:23;20.60;99.90
7496;DHT22;3789;47.064;15.482;2022-07-15T00:50:58;20.60;99.90
7496;DHT22;3789;47.064;15.482;2022-07-15T00:53:28;20.50;99.90
7496;DHT22;3789;47.064;15.482;2022-07-15T00:56:01;20.40;99.90
7496;DHT22;3789;47.064;15.482;2022-07-15T00:58:36;20.20;99.90
7496;DHT22;3789;47.064;15.482;2022-07-15T01:01:10;20.20;99.90
7496;DHT22;3789;47.064;15.482;2022-07-15T01:03:39;20.20;99.90
7496;DHT22;3789;47.064;15.482;2022-07-15T01:06:09;20.40;99.90
7496;DHT22;3789;47.064;15.482;2022-07-15T01:08:46;20.40;99.90
7496;DHT22;3789;47.064;15.482;2022-07-15T01:11:14;20.60;99.90
7496;DHT22;3789;47.064;15.482;2022-07-15T01:13:48;20.70;99.90
7496;DHT22;3789;47.064;15.482;2022-07-15T01:16:18;20.70;99.90
7496;DHT22;3789;47.064;15.482;2022-07-15T01:18:48;20.60;99.90
7496;DHT22;3789;47.064;15.482;2022-07-15T01:21:16;20.40;99.90
7496;DHT22;3789;47.064;15.482;2022-07-15T01:23:47;20.30;99.90
7496;DHT22;3789;47.064;15.482;2022-07-15T01:26:17;20.30;99.90
7496;DHT22;3789;47.064;15.482;2022-07-15T01:28:47;20.50;99.90
7496;DHT22;3789;47.064;15.482;2022-07-15T01:33:52;21.00;99.90
7496;DHT22;3789;47.064;15.482;2022-07-15T01:36:22;21.10;99.90
7496;DHT22;3789;47.064;15.482;2022-07-15T01:38:49;21.10;99.90
7496;DHT22;3789;47.064;15.482;2022-07-15T01:41:36;21.10;99.90
7496;DHT22;3789;47.064;15.482;2022-07-15T01:44:03;21.00;99.90
7496;DHT22;3789;47.064;15.482;2022-07-15T01:46:31;20.90;99.90
7496;DHT22;3789;47.064;15.482;2022-07-15T01:48:58;20.90;99.90
7496;DHT22;3789;47.064;15.482;2022-07-15T01:51:44;20.90;99.90
7496;DHT22;3789;47.064;15.482;2022-07-15T01:54:11;20.80;99.90
7496;DHT22;3789;47.064;15.482;2022-07-15T01:56:38;20.80;99.90
7496;DHT22;3789;47.064;15.482;2022-07-15T01:59:05;20.70;99.90
7496;DHT22;3789;47.064;15.482;2022-07-15T02:01:32;20.70;99.90
7496;DHT22;3789;47.064;15.482;2022-07-15T02:04:00;20.50;99.90
7496;DHT22;3789;47.064;15.482;2022-07-15T02:06:27;20.40;99.90
7496;DHT22;3789;47.064;15.482;2022-07-15T02:08:54;20.30;99.90
7496;DHT22;3789;47.064;15.482;2022-07-15T02:11:23;20.30;99.90
7496;DHT22;3789;47.064;15.482;2022-07-15T02:13:50;20.30;99.90
7496;DHT22;3789;47.064;15.482;2022-07-15T02:16:21;20.30;99.90
7496;DHT22;3789;47.064;15.482;2022-07-15T02:18:48;20.40;99.90
7496;DHT22;3789;47.064;15.482;2022-07-15T02:21:15;20.30;99.90
7496;DHT22;3789;47.064;15.482;2022-07-15T02:23:43;20.30;99.90
7496;DHT22;3789;47.064;15.482;2022-07-15T02:26:10;20.20;99.90
7496;DHT22;3789;47.064;15.482;2022-07-15T02:28:37;20.10;99.90
7496;DHT22;3789;47.064;15.482;2022-07-15T02:31:05;20.00;99.90
7496;DHT22;3789;47.064;15.482;2022-07-15T02:33:32;19.90;99.90
7496;DHT22;3789;47.064;15.482;2022-07-15T02:35:59;19.80;99.90
7496;DHT22;3789;47.064;15.482;2022-07-15T02:38:26;19.80;99.90
7496;DHT22;3789;47.064;15.482;2022-07-15T02:40:54;19.80;99.90
7496;DHT22;3789;47.064;15.482;2022-07-15T02:43:21;19.80;99.90
7496;DHT22;3789;47.064;15.482;2022-07-15T02:45:48;19.80;99.90
7496;DHT22;3789;47.064;15.482;2022-07-15T02:48:16;19.80;99.90
7496;DHT22;3789;47.064;15.482;2022-07-15T02:50:43;19.80;99.90
7496;DHT22;3789;47.064;15.482;2022-07-15T02:53:11;19.80;99.90
7496;DHT22;3789;47.064;15.482;2022-07-15T02:55:38;19.90;99.90
7496;DHT22;3789;47.064;15.482;2022-07-15T02:58:05;19.80;99.90
7496;DHT22;3789;47.064;15.482;2022-07-15T03:00:33;19.70;99.90
7496;DHT22;3789;47.064;15.482;2022-07-15T03:03:01;19.70;99.90
7496;DHT22;3789;47.064;15.482;2022-07-15T03:05:28;19.70;99.90
7496;DHT22;3789;47.064;15.482;2022-07-15T03:07:55;19.80;99.90
7496;DHT22;3789;47.064;15.482;2022-07-15T03:10:22;19.80;99.90
7496;DHT22;3789;47.064;15.482;2022-07-15T03:12:49;19.80;99.90
7496;DHT22;3789;47.064;15.482;2022-07-15T03:15:17;19.80;99.90
7496;DHT22;3789;47.064;15.482;2022-07-15T03:17:44;19.80;99.90
7496;DHT22;3789;47.064;15.482;2022-07-15T03:20:11;19.80;99.90
7496;DHT22;3789;47.064;15.482;2022-07-15T03:22:38;19.80;99.90
7496;DHT22;3789;47.064;15.482;2022-07-15T03:25:06;19.80;99.90
7496;DHT22;3789;47.064;15.482;2022-07-15T03:27:33;19.80;99.90
7496;DHT22;3789;47.064;15.482;2022-07-15T03:30:01;19.80;99.90
7496;DHT22;3789;47.064;15.482;2022-07-15T03:32:28;19.80;99.90
7496;DHT22;3789;47.064;15.482;2022-07-15T03:34:55;19.80;99.90
7496;DHT22;3789;47.064;15.482;2022-07-15T03:37:26;19.80;99.90
7496;DHT22;3789;47.064;15.482;2022-07-15T03:39:53;19.80;99.90
7496;DHT22;3789;47.064;15.482;2022-07-15T03:42:20;19.90;99.90
7496;DHT22;3789;47.064;15.482;2022-07-15T03:44:47;19.80;99.90
7496;DHT22;3789;47.064;15.482;2022-07-15T03:47:14;19.70;99.90
7496;DHT22;3789;47.064;15.482;2022-07-15T03:49:41;19.70;99.90
7496;DHT22;3789;47.064;15.482;2022-07-15T03:52:08;19.70;99.90
7496;DHT22;3789;47.064;15.482;2022-07-15T03:54:36;19.70;99.90
7496;DHT22;3789;47.064;15.482;2022-07-15T03:57:03;19.80;99.90
7496;DHT22;3789;47.064;15.482;2022-07-15T03:59:30;19.80;99.90
7496;DHT22;3789;47.064;15.482;2022-07-15T04:01:57;19.90;99.90
7496;DHT22;3789;47.064;15.482;2022-07-15T04:04:25;19.90;99.90
7496;DHT22;3789;47.064;15.482;2022-07-15T04:06:52;19.90;99.90
7496;DHT22;3789;47.064;15.482;2022-07-15T04:09:19;19.90;99.90
7496;DHT22;3789;47.064;15.482;2022-07-15T04:11:46;20.00;99.90
7496;DHT22;3789;47.064;15.482;2022-07-15T04:14:14;20.20;99.90
7496;DHT22;3789;47.064;15.482;2022-07-15T04:16:41;20.40;99.90
7496;DHT22;3789;47.064;15.482;2022-07-15T04:19:09;20.40;99.90
7496;DHT22;3789;47.064;15.482;2022-07-15T04:21:36;20.20;99.90
7496;DHT22;3789;47.064;15.482;2022-07-15T04:24:03;20.00;99.90
7496;DHT22;3789;47.064;15.482;2022-07-15T04:26:31;20.00;99.90
7496;DHT22;3789;47.064;15.482;2022-07-15T04:28:58;20.00;99.90
7496;DHT22;3789;47.064;15.482;2022-07-15T04:31:25;20.10;99.90
7496;DHT22;3789;47.064;15.482;2022-07-15T04:33:52;20.20;99.90
7496;DHT22;3789;47.064;15.482;2022-07-15T04:36:19;20.30;99.90
7496;DHT22;3789;47.064;15.482;2022-07-15T04:38:46;20.50;99.90
7496;DHT22;3789;47.064;15.482;2022-07-15T04:41:14;20.60;99.90
7496;DHT22;3789;47.064;15.482;2022-07-15T04:43:41;21.00;99.90
7496;DHT22;3789;47.064;15.482;2022-07-15T04:46:08;21.50;99.90
7496;DHT22;3789;47.064;15.482;2022-07-15T04:48:36;22.00;99.90
7496;DHT22;3789;47.064;15.482;2022-07-15T04:51:22;22.40;99.90
7496;DHT22;3789;47.064;15.482;2022-07-15T04:53:49;22.60;99.90
7496;DHT22;3789;47.064;15.482;2022-07-15T04:56:16;22.70;99.90
7496;DHT22;3789;47.064;15.482;2022-07-15T04:58:43;22.70;99.90
7496;DHT22;3789;47.064;15.482;2022-07-15T05:01:10;22.80;99.90
7496;DHT22;3789;47.064;15.482;2022-07-15T05:03:38;23.10;99.90
7496;DHT22;3789;47.064;15.482;2022-07-15T05:06:05;23.30;99.90
7496;DHT22;3789;47.064;15.482;2022-07-15T05:08:33;23.50;99.90
7496;DHT22;3789;47.064;15.482;2022-07-15T05:11:00;23.30;99.90
7496;DHT22;3789;47.064;15.482;2022-07-15T05:13:27;23.40;99.90
7496;DHT22;3789;47.064;15.482;2022-07-15T05:15:54;23.40;99.90
7496;DHT22;3789;47.064;15.482;2022-07-15T05:18:22;23.20;99.90
7496;DHT22;3789;47.064;15.482;2022-07-15T05:20:49;23.30;99.90
7496;DHT22;3789;47.064;15.482;2022-07-15T05:23:17;22.90;99.90
7496;DHT22;3789;47.064;15.482;2022-07-15T05:25:45;22.70;99.90
7496;DHT22;3789;47.064;15.482;2022-07-15T05:28:12;22.70;99.90
7496;DHT22;3789;47.064;15.482;2022-07-15T05:30:40;22.80;99.90
7496;DHT22;3789;47.064;15.482;2022-07-15T05:33:08;22.90;99.90
7496;DHT22;3789;47.064;15.482;2022-07-15T05:35:36;22.90;99.90
7496;DHT22;3789;47.064;15.482;2022-07-15T05:38:03;23.00;99.90
7496;DHT22;3789;47.064;15.482;2022-07-15T05:40:31;22.80;99.90
7496;DHT22;3789;47.064;15.482;2022-07-15T05:42:58;22.60;99.90
7496;DHT22;3789;47.064;15.482;2022-07-15T05:45:25;22.40;99.90
7496;DHT22;3789;47.064;15.482;2022-07-15T05:47:52;22.40;99.90
7496;DHT22;3789;47.064;15.482;2022-07-15T05:50:20;22.30;99.90
7496;DHT22;3789;47.064;15.482;2022-07-15T05:52:47;22.40;99.90
7496;DHT22;3789;47.064;15.482;2022-07-15T05:55:15;22.00;99.90
7496;DHT22;3789;47.064;15.482;2022-07-15T05:57:42;21.70;99.90
7496;DHT22;3789;47.064;15.482;2022-07-15T06:00:12;21.60;99.90
7496;DHT22;3789;47.064;15.482;2022-07-15T06:02:40;21.60;99.90
7496;DHT22;3789;47.064;15.482;2022-07-15T06:05:08;21.60;99.90
7496;DHT22;3789;47.064;15.482;2022-07-15T06:07:35;22.00;99.90
7496;DHT22;3789;47.064;15.482;2022-07-15T06:10:04;22.40;99.90
7496;DHT22;3789;47.064;15.482;2022-07-15T06:12:31;22.80;99.90
7496;DHT22;3789;47.064;15.482;2022-07-15T06:14:58;23.00;99.90
7496;DHT22;3789;47.064;15.482;2022-07-15T06:17:26;22.80;99.90
7496;DHT22;3789;47.064;15.482;2022-07-15T06:19:53;22.70;99.90
7496;DHT22;3789;47.064;15.482;2022-07-15T06:22:21;22.80;99.90
7496;DHT22;3789;47.064;15.482;2022-07-15T06:24:48;22.90;99.90
7496;DHT22;3789;47.064;15.482;2022-07-15T06:27:15;23.00;99.90
7496;DHT22;3789;47.064;15.482;2022-07-15T06:29:42;23.00;99.90
7496;DHT22;3789;47.064;15.482;2022-07-15T06:32:09;22.90;99.90
7496;DHT22;3789;47.064;15.482;2022-07-15T06:34:38;23.00;99.90
7496;DHT22;3789;47.064;15.482;2022-07-15T06:37:06;22.80;99.90
7496;DHT22;3789;47.064;15.482;2022-07-15T06:39:33;22.90;99.90
7496;DHT22;3789;47.064;15.482;2022-07-15T06:42:00;22.80;99.90
7496;DHT22;3789;47.064;15.482;2022-07-15T06:44:28;22.80;99.90
7496;DHT22;3789;47.064;15.482;2022-07-15T06:46:56;22.80;99.90
7496;DHT22;3789;47.064;15.482;2022-07-15T06:49:26;22.80;99.90
7496;DHT22;3789;47.064;15.482;2022-07-15T06:51:53;22.80;99.90
7496;DHT22;3789;47.064;15.482;2022-07-15T06:54:21;22.70;99.90
7496;DHT22;3789;47.064;15.482;2022-07-15T06:56:48;22.60;99.90
7496;DHT22;3789;47.064;15.482;2022-07-15T06:59:15;22.60;99.90
7496;DHT22;3789;47.064;15.482;2022-07-15T07:01:42;22.60;99.90
7496;DHT22;3789;47.064;15.482;2022-07-15T07:04:09;22.60;99.90
7496;DHT22;3789;47.064;15.482;2022-07-15T07:06:37;22.60;99.90
7496;DHT22;3789;47.064;15.482;2022-07-15T07:09:04;22.50;99.90
7496;DHT22;3789;47.064;15.482;2022-07-15T07:11:32;22.50;99.90
7496;DHT22;3789;47.064;15.482;2022-07-15T07:13:59;22.50;99.90
7496;DHT22;3789;47.064;15.482;2022-07-15T07:16:27;22.50;99.90
7496;DHT22;3789;47.064;15.482;2022-07-15T07:18:54;22.50;99.90
7496;DHT22;3789;47.064;15.482;2022-07-15T07:21:22;22.50;99.90
7496;DHT22;3789;47.064;15.482;2022-07-15T07:23:58;22.60;99.90
7496;DHT22;3789;47.064;15.482;2022-07-15T07:26:25;22.60;99.90
7496;DHT22;3789;47.064;15.482;2022-07-15T07:28:53;22.60;99.90
7496;DHT22;3789;47.064;15.482;2022-07-15T07:31:20;22.70;99.90
7496;DHT22;3789;47.064;15.482;2022-07-15T07:33:54;22.80;99.90
7496;DHT22;3789;47.064;15.482;2022-07-15T07:36:22;22.80;99.90
7496;DHT22;3789;47.064;15.482;2022-07-15T07:38:50;22.80;99.90
7496;DHT22;3789;47.064;15.482;2022-07-15T07:41:17;22.90;99.90
7496;DHT22;3789;47.064;15.482;2022-07-15T07:43:45;23.00;99.90
7496;DHT22;3789;47.064;15.482;2022-07-15T07:46:14;23.00;99.90
7496;DHT22;3789;47.064;15.482;2022-07-15T07:48:44;23.10;99.90
7496;DHT22;3789;47.064;15.482;2022-07-15T07:51:11;23.20;99.90
7496;DHT22;3789;47.064;15.482;2022-07-15T07:53:38;23.40;99.90
7496;DHT22;3789;47.064;15.482;2022-07-15T07:56:05;23.60;99.90
7496;DHT22;3789;47.064;15.482;2022-07-15T07:58:33;23.70;99.90
7496;DHT22;3789;47.064;15.482;2022-07-15T08:01:01;23.90;99.90
7496;DHT22;3789;47.064;15.482;2022-07-15T08:03:28;23.90;99.90
7496;DHT22;3789;47.064;15.482;2022-07-15T08:05:56;23.90;99.90
7496;DHT22;3789;47.064;15.482;2022-07-15T08:08:23;23.90;99.90
7496;DHT22;3789;47.064;15.482;2022-07-15T08:10:56;23.80;99.90
7496;DHT22;3789;47.064;15.482;2022-07-15T08:13:25;23.80;99.90
7496;DHT22;3789;47.064;15.482;2022-07-15T08:15:53;23.90;99.90
7496;DHT22;3789;47.064;15.482;2022-07-15T08:18:29;24.00;99.90
7496;DHT22;3789;47.064;15.482;2022-07-15T08:20:56;24.30;99.90
7496;DHT22;3789;47.064;15.482;2022-07-15T08:23:24;24.60;99.90
7496;DHT22;3789;47.064;15.482;2022-07-15T08:25:52;24.70;99.90
7496;DHT22;3789;47.064;15.482;2022-07-15T08:28:19;24.70;99.90
7496;DHT22;3789;47.064;15.482;2022-07-15T08:31:00;24.60;99.90
7496;DHT22;3789;47.064;15.482;2022-07-15T08:33:28;24.20;99.90
7496;DHT22;3789;47.064;15.482;2022-07-15T08:35:55;23.90;99.90
7496;DHT22;3789;47.064;15.482;2022-07-15T08:38:23;23.90;99.90
7496;DHT22;3789;47.064;15.482;2022-07-15T08:40:50;24.30;99.90
7496;DHT22;3789;47.064;15.482;2022-07-15T08:43:17;24.70;99.90
7496;DHT22;3789;47.064;15.482;2022-07-15T08:45:44;24.50;99.90
7496;DHT22;3789;47.064;15.482;2022-07-15T08:48:12;24.50;99.90
7496;DHT22;3789;47.064;15.482;2022-07-15T08:50:41;24.60;99.90
7496;DHT22;3789;47.064;15.482;2022-07-15T08:53:09;24.60;99.90
7496;DHT22;3789;47.064;15.482;2022-07-15T08:55:36;24.50;99.90
7496;DHT22;3789;47.064;15.482;2022-07-15T08:58:03;24.40;99.90
7496;DHT22;3789;47.064;15.482;2022-07-15T09:00:30;24.30;99.90
7496;DHT22;3789;47.064;15.482;2022-07-15T09:03:00;24.20;99.90
7496;DHT22;3789;47.064;15.482;2022-07-15T09:05:33;24.10;99.90
7496;DHT22;3789;47.064;15.482;2022-07-15T09:08:07;24.00;99.90
7496;DHT22;3789;47.064;15.482;2022-07-15T09:16:02;23.90;99.90
7496;DHT22;3789;47.064;15.482;2022-07-15T09:18:40;23.90;99.90
7496;DHT22;3789;47.064;15.482;2022-07-15T09:21:27;23.80;99.90
7496;DHT22;3789;47.064;15.482;2022-07-15T09:23:55;23.90;99.90
7496;DHT22;3789;47.064;15.482;2022-07-15T09:26:30;23.90;99.90
7496;DHT22;3789;47.064;15.482;2022-07-15T09:29:00;23.80;99.90
7496;DHT22;3789;47.064;15.482;2022-07-15T09:31:38;23.80;99.90
7496;DHT22;3789;47.064;15.482;2022-07-15T09:34:24;23.90;99.90
7496;DHT22;3789;47.064;15.482;2022-07-15T09:36:54;24.10;99.90
7496;DHT22;3789;47.064;15.482;2022-07-15T09:39:24;24.40;99.90
7496;DHT22;3789;47.064;15.482;2022-07-15T09:41:52;24.50;99.90
7496;DHT22;3789;47.064;15.482;2022-07-15T09:44:28;24.70;99.90
7496;DHT22;3789;47.064;15.482;2022-07-15T09:47:01;25.00;99.90
7496;DHT22;3789;47.064;15.482;2022-07-15T09:49:34;25.20;99.90
7496;DHT22;3789;47.064;15.482;2022-07-15T09:52:05;25.30;99.90
7496;DHT22;3789;47.064;15.482;2022-07-15T09:54:38;25.30;99.90
7496;DHT22;3789;47.064;15.482;2022-07-15T09:57:13;24.90;99.90
7496;DHT22;3789;47.064;15.482;2022-07-15T09:59:43;24.10;99.90
7496;DHT22;3789;47.064;15.482;2022-07-15T10:02:11;23.60;99.90
7496;DHT22;3789;47.064;15.482;2022-07-15T10:04:38;23.50;99.90
7496;DHT22;3789;47.064;15.482;2022-07-15T10:07:07;23.50;99.90
7496;DHT22;3789;47.064;15.482;2022-07-15T10:09:55;23.40;99.90
7496;DHT22;3789;47.064;15.482;2022-07-15T10:12:46;23.40;99.90
7496;DHT22;3789;47.064;15.482;2022-07-15T10:15:29;23.20;99.90
7496;DHT22;3789;47.064;15.482;2022-07-15T10:18:36;23.30;99.90
7496;DHT22;3789;47.064;15.482;2022-07-15T10:24:12;23.00;99.90
7496;DHT22;3789;47.064;15.482;2022-07-15T10:27:02;23.10;99.90
7496;DHT22;3789;47.064;15.482;2022-07-15T10:29:32;23.70;99.90
7496;DHT22;3789;47.064;15.482;2022-07-15T10:32:00;24.30;99.90
7496;DHT22;3789;47.064;15.482;2022-07-15T10:34:35;24.70;99.90
7496;DHT22;3789;47.064;15.482;2022-07-15T10:37:05;25.00;99.90
7496;DHT22;3789;47.064;15.482;2022-07-15T10:39:50;24.80;99.90
7496;DHT22;3789;47.064;15.482;2022-07-15T10:42:19;24.30;99.90
7496;DHT22;3789;47.064;15.482;2022-07-15T10:47:26;23.90;99.90
7496;DHT22;3789;47.064;15.482;2022-07-15T10:49:53;24.10;99.90
7496;DHT22;3789;47.064;15.482;2022-07-15T10:52:31;24.30;99.90
7496;DHT22;3789;47.064;15.482;2022-07-15T10:55:04;24.70;99.90
7496;DHT22;3789;47.064;15.482;2022-07-15T11:00:33;25.30;99.90
7496;DHT22;3789;47.064;15.482;2022-07-15T11:03:14;25.50;99.90
7496;DHT22;3789;47.064;15.482;2022-07-15T11:13:50;24.80;99.90
7496;DHT22;3789;47.064;15.482;2022-07-15T11:16:19;24.90;99.90
7496;DHT22;3789;47.064;15.482;2022-07-15T11:18:56;25.00;99.90
7496;DHT22;3789;47.064;15.482;2022-07-15T11:21:26;25.10;99.90
7496;DHT22;3789;47.064;15.482;2022-07-15T11:23:53;25.30;99.90
7496;DHT22;3789;47.064;15.482;2022-07-15T11:26:23;25.10;99.90
7496;DHT22;3789;47.064;15.482;2022-07-15T11:29:10;25.00;99.90
7496;DHT22;3789;47.064;15.482;2022-07-15T11:31:42;25.00;99.90
7496;DHT22;3789;47.064;15.482;2022-07-15T11:34:11;25.10;99.90
7496;DHT22;3789;47.064;15.482;2022-07-15T11:36:38;25.20;99.90
7496;DHT22;3789;47.064;15.482;2022-07-15T11:39:05;25.20;99.90
7496;DHT22;3789;47.064;15.482;2022-07-15T11:41:32;25.30;99.90
7496;DHT22;3789;47.064;15.482;2022-07-15T11:44:18;25.20;99.90
7496;DHT22;3789;47.064;15.482;2022-07-15T11:47:00;24.80;99.90
7496;DHT22;3789;47.064;15.482;2022-07-15T11:49:33;24.90;99.90
7496;DHT22;3789;47.064;15.482;2022-07-15T11:52:02;24.90;99.90
7496;DHT22;3789;47.064;15.482;2022-07-15T11:54:31;25.00;99.90
7496;DHT22;3789;47.064;15.482;2022-07-15T11:57:01;25.10;99.90
7496;DHT22;3789;47.064;15.482;2022-07-15T11:59:29;25.10;99.90
7496;DHT22;3789;47.064;15.482;2022-07-15T12:02:10;25.20;99.90
7496;DHT22;3789;47.064;15.482;2022-07-15T12:04:40;25.20;99.90
7496;DHT22;3789;47.064;15.482;2022-07-15T12:07:09;25.30;99.90
7496;DHT22;3789;47.064;15.482;2022-07-15T12:09:44;25.20;99.90
7496;DHT22;3789;47.064;15.482;2022-07-15T12:12:12;25.20;99.90
7496;DHT22;3789;47.064;15.482;2022-07-15T12:14:40;25.10;99.90
7496;DHT22;3789;47.064;15.482;2022-07-15T12:17:09;24.80;99.90
7496;DHT22;3789;47.064;15.482;2022-07-15T12:19:37;24.00;99.90
7496;DHT22;3789;47.064;15.482;2022-07-15T12:22:09;23.70;99.90
7496;DHT22;3789;47.064;15.482;2022-07-15T12:24:47;23.60;99.90
7496;DHT22;3789;47.064;15.482;2022-07-15T12:27:35;23.80;99.90
7496;DHT22;3789;47.064;15.482;2022-07-15T12:30:05;23.90;99.90
7496;DHT22;3789;47.064;15.482;2022-07-15T12:32:35;24.10;99.90
7496;DHT22;3789;47.064;15.482;2022-07-15T12:35:04;24.10;99.90
7496;DHT22;3789;47.064;15.482;2022-07-15T12:40:09;24.30;99.90
7496;DHT22;3789;47.064;15.482;2022-07-15T12:45:26;24.20;99.90
7496;DHT22;3789;47.064;15.482;2022-07-15T12:53:02;24.00;99.90
7496;DHT22;3789;47.064;15.482;2022-07-15T12:55:45;24.10;99.90
7496;DHT22;3789;47.064;15.482;2022-07-15T12:58:15;24.20;99.90
7496;DHT22;3789;47.064;15.482;2022-07-15T13:00:44;24.20;99.90
7496;DHT22;3789;47.064;15.482;2022-07-15T13:03:20;24.20;99.90
7496;DHT22;3789;47.064;15.482;2022-07-15T13:05:52;23.80;99.90
7496;DHT22;3789;47.064;15.482;2022-07-15T13:08:27;23.40;99.90
7496;DHT22;3789;47.064;15.482;2022-07-15T13:10:59;23.10;99.90
7496;DHT22;3789;47.064;15.482;2022-07-15T13:13:29;23.10;99.90
7496;DHT22;3789;47.064;15.482;2022-07-15T13:15:56;23.10;99.90
7496;DHT22;3789;47.064;15.482;2022-07-15T13:18:26;23.20;99.90
7496;DHT22;3789;47.064;15.482;2022-07-15T13:20:54;23.20;99.90
7496;DHT22;3789;47.064;15.482;2022-07-15T13:23:22;23.10;99.90
7496;DHT22;3789;47.064;15.482;2022-07-15T13:25:50;22.90;99.90
7496;DHT22;3789;47.064;15.482;2022-07-15T13:28:18;22.90;99.90
7496;DHT22;3789;47.064;15.482;2022-07-15T13:30:45;23.00;99.90
7496;DHT22;3789;47.064;15.482;2022-07-15T13:33:13;22.80;99.90
7496;DHT22;3789;47.064;15.482;2022-07-15T13:35:40;22.60;99.90
7496;DHT22;3789;47.064;15.482;2022-07-15T13:38:08;22.30;99.90
7496;DHT22;3789;47.064;15.482;2022-07-15T13:40:35;22.30;99.90
7496;DHT22;3789;47.064;15.482;2022-07-15T13:43:02;22.10;99.90
7496;DHT22;3789;47.064;15.482;2022-07-15T13:45:29;22.00;99.90
7496;DHT22;3789;47.064;15.482;2022-07-15T13:47:57;22.00;99.90
7496;DHT22;3789;47.064;15.482;2022-07-15T13:50:24;21.90;99.90
7496;DHT22;3789;47.064;15.482;2022-07-15T13:53:09;22.00;99.90
7496;DHT22;3789;47.064;15.482;2022-07-15T13:55:37;21.80;99.90
7496;DHT22;3789;47.064;15.482;2022-07-15T13:58:06;21.60;99.90
7496;DHT22;3789;47.064;15.482;2022-07-15T14:00:33;21.40;99.90
7496;DHT22;3789;47.064;15.482;2022-07-15T14:03:02;21.20;99.90
7496;DHT22;3789;47.064;15.482;2022-07-15T14:05:30;21.10;99.90
7496;DHT22;3789;47.064;15.482;2022-07-15T14:07:57;21.10;99.90
7496;DHT22;3789;47.064;15.482;2022-07-15T14:10:24;21.00;99.90
7496;DHT22;3789;47.064;15.482;2022-07-15T14:12:51;21.00;99.90
7496;DHT22;3789;47.064;15.482;2022-07-15T14:15:18;21.10;99.90
7496;DHT22;3789;47.064;15.482;2022-07-15T14:17:53;21.10;99.90
7496;DHT22;3789;47.064;15.482;2022-07-15T14:20:20;21.10;99.90
7496;DHT22;3789;47.064;15.482;2022-07-15T14:22:47;21.10;99.90
7496;DHT22;3789;47.064;15.482;2022-07-15T14:25:15;21.10;99.90
7496;DHT22;3789;47.064;15.482;2022-07-15T14:27:42;21.10;99.90
7496;DHT22;3789;47.064;15.482;2022-07-15T14:30:10;21.10;99.90
7496;DHT22;3789;47.064;15.482;2022-07-15T14:32:45;20.90;99.90
7496;DHT22;3789;47.064;15.482;2022-07-15T14:35:13;20.80;99.90
7496;DHT22;3789;47.064;15.482;2022-07-15T14:37:40;20.70;99.90
7496;DHT22;3789;47.064;15.482;2022-07-15T14:40:08;20.70;99.90
7496;DHT22;3789;47.064;15.482;2022-07-15T14:42:35;20.60;99.90
7496;DHT22;3789;47.064;15.482;2022-07-15T14:45:03;20.60;99.90
7496;DHT22;3789;47.064;15.482;2022-07-15T14:47:30;20.50;99.90
7496;DHT22;3789;47.064;15.482;2022-07-15T14:49:58;20.40;99.90
7496;DHT22;3789;47.064;15.482;2022-07-15T14:52:25;20.40;99.90
7496;DHT22;3789;47.064;15.482;2022-07-15T14:54:52;20.40;99.90
7496;DHT22;3789;47.064;15.482;2022-07-15T14:57:19;20.40;99.90
7496;DHT22;3789;47.064;15.482;2022-07-15T14:59:47;20.50;99.90
7496;DHT22;3789;47.064;15.482;2022-07-15T15:02:15;20.30;99.90
7496;DHT22;3789;47.064;15.482;2022-07-15T15:04:42;20.20;99.90
7496;DHT22;3789;47.064;15.482;2022-07-15T15:07:10;20.10;99.90
7496;DHT22;3789;47.064;15.482;2022-07-15T15:09:37;19.90;99.90
7496;DHT22;3789;47.064;15.482;2022-07-15T15:12:05;19.90;99.90
7496;DHT22;3789;47.064;15.482;2022-07-15T15:14:36;19.90;99.90
7496;DHT22;3789;47.064;15.482;2022-07-15T15:17:03;19.90;99.90
7496;DHT22;3789;47.064;15.482;2022-07-15T15:19:35;20.00;99.90
7496;DHT22;3789;47.064;15.482;2022-07-15T15:22:03;20.10;99.90
7496;DHT22;3789;47.064;15.482;2022-07-15T15:24:31;20.10;99.90
7496;DHT22;3789;47.064;15.482;2022-07-15T15:26:59;20.20;99.90
7496;DHT22;3789;47.064;15.482;2022-07-15T15:29:28;20.20;99.90
7496;DHT22;3789;47.064;15.482;2022-07-15T15:31:56;20.20;99.90
7496;DHT22;3789;47.064;15.482;2022-07-15T15:34:23;20.00;99.90
7496;DHT22;3789;47.064;15.482;2022-07-15T15:36:50;20.00;99.90
7496;DHT22;3789;47.064;15.482;2022-07-15T15:39:17;20.00;99.90
7496;DHT22;3789;47.064;15.482;2022-07-15T15:41:44;20.00;99.90
7496;DHT22;3789;47.064;15.482;2022-07-15T15:44:11;20.10;99.90
7496;DHT22;3789;47.064;15.482;2022-07-15T15:46:40;20.10;99.90
7496;DHT22;3789;47.064;15.482;2022-07-15T15:49:08;20.00;99.90
7496;DHT22;3789;47.064;15.482;2022-07-15T15:51:35;19.80;99.90
7496;DHT22;3789;47.064;15.482;2022-07-15T15:54:02;19.60;99.90
7496;DHT22;3789;47.064;15.482;2022-07-15T15:56:29;19.60;99.90
7496;DHT22;3789;47.064;15.482;2022-07-15T15:58:57;19.70;99.90
7496;DHT22;3789;47.064;15.482;2022-07-15T16:01:24;19.60;99.90
7496;DHT22;3789;47.064;15.482;2022-07-15T16:03:52;19.70;99.90
7496;DHT22;3789;47.064;15.482;2022-07-15T16:06:20;19.80;99.90
7496;DHT22;3789;47.064;15.482;2022-07-15T16:08:50;19.80;99.90
7496;DHT22;3789;47.064;15.482;2022-07-15T16:11:18;19.90;99.90
7496;DHT22;3789;47.064;15.482;2022-07-15T16:13:47;19.90;99.90
7496;DHT22;3789;47.064;15.482;2022-07-15T16:16:15;19.90;99.90
7496;DHT22;3789;47.064;15.482;2022-07-15T16:18:44;19.90;99.90
7496;DHT22;3789;47.064;15.482;2022-07-15T16:21:11;19.60;99.90
7496;DHT22;3789;47.064;15.482;2022-07-15T16:23:38;19.00;99.90
7496;DHT22;3789;47.064;15.482;2022-07-15T16:26:05;18.60;99.90
7496;DHT22;3789;47.064;15.482;2022-07-15T16:28:33;18.50;99.90
7496;DHT22;3789;47.064;15.482;2022-07-15T16:31:01;18.50;99.90
7496;DHT22;3789;47.064;15.482;2022-07-15T16:33:28;18.50;99.90